Nearby METAR Reports

 

KTAN - Taunton, Massachusetts, USA
Distance from station: W 5mi, 8km
Updated: Sun, 14-Jul-2024 12:52pm EDT
Few Clouds
Few Clouds
 Wind from varies
Wind: varies 3 mph, 6 km/h
Temperature: 90°F, 32°C
Heat Index: 92°F, 33°C
Dew Point: 64°F, 18°C
Humidity: 43%
Barometer: 29.98 inHg, 1015.2 hPa
Clouds: Few Clouds
Visibility: 10 miles, 16 km
Cloud details: Few Clouds 4900 ft
2024/07/14 16:52 KTAN 141652Z AUTO VRB03KT 10SM FEW049 32/18 A2998 RMK AO2 SLP150 T03220183
KPYM - Plymouth, Massachusetts, USA
Distance from station: ENE 10mi, 16km
Updated: Sun, 14-Jul-2024 12:52pm EDT
Partly cloudy
Partly cloudy
 
Temperature: 90°F, 32°C
Heat Index: 93°F, 34°C
Dew Point: 66°F, 19°C
Humidity: 46%
Barometer: 29.98 inHg, 1015.2 hPa
Clouds: Partly cloudy
Visibility: 10 miles, 16 km
Cloud details: Few Clouds 4600 ft
Partly cloudy 6000 ft
2024/07/14 16:52 KPYM 141652Z AUTO 10SM FEW046 SCT060 32/19 A2998 RMK AO2 SLP153 T03170189
 
KEWB - New Bedford, Massachusetts, USA
Distance from station: S 14mi, 23km
Updated: Sun, 14-Jul-2024 12:53pm EDT
Mostly cloudy
Mostly cloudy
 Wind from SE
Wind: SE 7 mph, 11 km/h
Temperature: 86°F, 30°C
Heat Index: 92°F, 33°C
Dew Point: 72°F, 22°C
Humidity: 62%
Barometer: 29.98 inHg, 1015.2 hPa
Clouds: Mostly cloudy
Visibility: 10 miles, 16 km
Cloud details: Few Clouds 4100 ft
Partly cloudy 5000 ft
Mostly cloudy 6000 ft
2024/07/14 16:53 KEWB 141653Z 13006KT 10SM FEW041 SCT050 BKN060 30/22 A2998 RMK AO2 SLP150 T03000222
KGHG - Marshfield, Massachusetts, USA
Distance from station: NE 20mi, 31km
Updated: Sun, 14-Jul-2024 1:35pm EDT
Clear
Clear
 Wind from varies
Wind: varies 6 mph, 9 km/h
Temperature: 82°F, 28°C
Heat Index: 83°F, 28°C
Dew Point: 63°F, 17°C
Humidity: 51%
Barometer: 29.97 inHg, 1014.9 hPa
Clouds: Clear
Visibility: 10 miles, 16 km
2024/07/14 17:35 KGHG 141735Z AUTO VRB05KT 10SM CLR 28/17 A2997 RMK AO2
 
KOWD - Norwood, Massachusetts, USA
Distance from station: NNW 24mi, 39km
Updated: Sun, 14-Jul-2024 12:53pm EDT
Few Clouds
Few Clouds
 Wind from SSW
Wind: SSW 6 mph, 9 km/h
Temperature: 90°F, 32°C
Heat Index: 96°F, 36°C
Dew Point: 70°F, 21°C
Humidity: 52%
Barometer: 29.98 inHg, 1015.2 hPa
Clouds: Few Clouds
Visibility: 10 miles, 16 km
Cloud details: Few Clouds 5000 ft
2024/07/14 16:53 KOWD 141653Z 20005KT 10SM FEW050 32/21 A2998 RMK AO2 SLP152 T03170206 $
KMQE - East Milton, Massachusetts, USA
Distance from station: NNW 25mi, 40km
Updated: Thu, 01-Jul-2021 9:51am EDT
NOT Current

 Wind from WNW
Wind: WNW 9 mph, 15 km/h
Temperature: 75°F, 24°C
Dew Point: 70°F, 21°C
Humidity: 83%
Barometer: 29.86 inHg, 1011.2 hPa
2021/07/01 13:51 KMQE 011351Z AUTO 30008KT 24/21 A2986 RMK AO1 SLP116 T02440206
 
KFMH - Falmouth/Otis Ab, Massachusetts, USA
Distance from station: SE 27mi, 44km
Updated: Sun, 14-Jul-2024 12:56pm EDT
Mostly cloudy
Mostly cloudy
 Wind from calm
Wind: Calm
Temperature: 84°F, 29°C
Heat Index: 86°F, 30°C
Dew Point: 66°F, 19°C
Humidity: 55%
Barometer: 30.00 inHg, 1015.9 hPa
Clouds: Mostly cloudy
Visibility: 10 miles, 16 km
Cloud details: Mostly cloudy 4100 ft
2024/07/14 16:56 KFMH 141656Z 00000KT 10SM BKN041 29/19 A3000
KPVD - Providence/Green, Rhode Island, USA
Distance from station: WSW 29mi, 47km
Updated: Sun, 14-Jul-2024 12:51pm EDT
Partly cloudy
Partly cloudy
 Wind from S
Wind: S 13 mph, 20 km/h, Gust: 17 mph, 28 km/h
Temperature: 84°F, 29°C
Heat Index: 89°F, 32°C
Dew Point: 72°F, 22°C
Humidity: 66%
Barometer: 29.99 inHg, 1015.6 hPa
Clouds: Partly cloudy
Visibility: 10 miles, 16 km
Cloud details: Partly cloudy 3900 ft
2024/07/14 16:51 KPVD 141651Z 18011G15KT 10SM SCT039 29/22 A2999 RMK AO2 SLP155 T02940217 $
 
KSFZ - Pawtucket, Rhode Island, USA
Distance from station: W 30mi, 48km
Updated: Sun, 14-Jul-2024 12:56pm EDT
Few Clouds
Few Clouds
 Wind from NW
Wind: NW 3 mph, 6 km/h
Temperature: 86°F, 30°C
Heat Index: 89°F, 32°C
Dew Point: 68°F, 20°C
Humidity: 55%
Barometer: 30.01 inHg, 1016.3 hPa
Clouds: Few Clouds
Cloud details: Few Clouds 5500 ft
2024/07/14 16:56 KSFZ 141656Z AUTO 32003KT FEW055 30/20 A3001 RMK AO2 SLP158 T03000200 PWINO $
KUUU - Newport, Rhode Island, USA
Distance from station: SW 31mi, 50km
Updated: Sun, 14-Jul-2024 12:53pm EDT
Clear
Clear
 Wind from S
Wind: S 9 mph, 15 km/h
Temperature: 82°F, 28°C
Heat Index: 84°F, 29°C
Dew Point: 66°F, 19°C
Humidity: 58%
Barometer: 30.00 inHg, 1015.9 hPa
Clouds: Clear
Visibility: 10 miles, 16 km
2024/07/14 16:53 KUUU 141653Z AUTO 19008KT 10SM CLR 28/19 A3000 RMK AO2 SLP155 T02830194
 
KOQU - N. Kingston/Quon, Rhode Island, USA
Distance from station: SW 32mi, 52km
Updated: Sun, 14-Jul-2024 11:50am EDT
NOT Current
Partly cloudy
Partly cloudy
 Wind from S
Wind: S 10 mph, 17 km/h
Temperature: 86°F, 30°C
Heat Index: 92°F, 33°C
Dew Point: 72°F, 22°C
Humidity: 62%
Barometer: 30.02 inHg, 1016.6 hPa
Clouds: Partly cloudy
Visibility: 10 miles, 16 km
Cloud details: Partly cloudy 4000 ft
2024/07/14 15:50 KOQU 141550Z AUTO 18009KT 10SM SCT040 30/22 A3002
KBOS - Boston, Massachusetts, USA
Distance from station: N 33mi, 54km
Updated: Sun, 14-Jul-2024 12:54pm EDT
Partly cloudy
Partly cloudy
 Wind from ESE
Wind: ESE 8 mph, 13 km/h
Temperature: 82°F, 28°C
Heat Index: 84°F, 29°C
Dew Point: 64°F, 18°C
Humidity: 55%
Barometer: 29.98 inHg, 1015.2 hPa
Clouds: Partly cloudy
Visibility: 10 miles, 16 km
Cloud details: Partly cloudy 6000 ft
2024/07/14 16:54 KBOS 141654Z 12007KT 10SM SCT060 28/18 A2998 RMK AO2 SLP151 T02830183
 
KHYA - Hyannis, Massachusetts, USA
Distance from station: ESE 37mi, 59km
Updated: Sun, 14-Jul-2024 12:56pm EDT
Clear
Clear
 Wind from calm
Wind: Calm
Temperature: 84°F, 29°C
Heat Index: 86°F, 30°C
Dew Point: 66°F, 19°C
Humidity: 55%
Barometer: 29.98 inHg, 1015.2 hPa
Clouds: Clear
Visibility: 10 miles, 16 km
2024/07/14 16:56 KHYA 141656Z 00000KT 10SM CLR 29/19 A2998 RMK AO2 SLP152 T02890189
KMVY - Marthas Vineyard, Massachusetts, USA
Distance from station: SSE 37mi, 60km
Updated: Sun, 14-Jul-2024 12:53pm EDT
Clear
Clear
 Wind from S
Wind: S 8 mph, 13 km/h
Temperature: 82°F, 28°C
Heat Index: 89°F, 32°C
Dew Point: 75°F, 24°C
Humidity: 79%
Barometer: 29.99 inHg, 1015.6 hPa
Clouds: Clear
Visibility: 10 miles, 16 km
2024/07/14 16:53 KMVY 141653Z 19007KT 10SM CLR 28/24 A2999 RMK AO2 SLP155 T02830239
 
KPVC - Provincetown, Massachusetts, USA
Distance from station: ENE 38mi, 61km
Updated: Sun, 14-Jul-2024 12:56pm EDT
Clear
Clear
 Wind from N
Wind: N 5 mph, 7 km/h
Temperature: 81°F, 27°C
Heat Index: 85°F, 29°C
Dew Point: 70°F, 21°C
Humidity: 70%
Barometer: 30.00 inHg, 1015.9 hPa
Clouds: Clear
Visibility: 10 miles, 16 km
2024/07/14 16:56 KPVC 141656Z AUTO 35004KT 10SM CLR 27/21 A3000 RMK AO2 SLP157 T02720206
KBED - Bedford, Massachusetts, USA
Distance from station: NNW 44mi, 72km
Updated: Sun, 14-Jul-2024 12:51pm EDT
Few Clouds
Few Clouds
 Wind from SW
Wind: SW 9 mph, 15 km/h
Temperature: 86°F, 30°C
Heat Index: 88°F, 31°C
Dew Point: 64°F, 18°C
Humidity: 49%
Barometer: 29.97 inHg, 1014.9 hPa
Clouds: Few Clouds
Visibility: 10 miles, 16 km
Cloud details: Few Clouds 4900 ft
Few Clouds 6000 ft
2024/07/14 16:51 KBED 141651Z 22008KT 10SM FEW049 FEW060 30/18 A2997 RMK AO2 SLP161 T03000183
 
KBVY - Beverly, Massachusetts, USA
Distance from station: 0 48mi, 77km
Updated: Sun, 14-Jul-2024 12:53pm EDT
Few Clouds
Few Clouds
 Wind from WNW
Wind: WNW 8 mph, 13 km/h
Temperature: 88°F, 31°C
Dew Point: 59°F, 15°C
Humidity: 38%
Barometer: 29.97 inHg, 1014.9 hPa
Clouds: Few Clouds
Visibility: 10 miles, 16 km
Cloud details: Few Clouds 6000 ft
2024/07/14 16:53 KBVY 141653Z 30007KT 10SM FEW060 31/15 A2997 RMK AO2 SLP142 T03110150
KCQX - Chatham, Massachusetts, USA
Distance from station: ESE 49mi, 80km
Updated: Sun, 14-Jul-2024 1:22pm EDT
Partly cloudy
Partly cloudy
 Wind from SE
Wind: SE 5 mph, 7 km/h
Temperature: 82°F, 28°C
Heat Index: 87°F, 31°C
Dew Point: 73°F, 23°C
Humidity: 74%
Barometer: 29.99 inHg, 1015.6 hPa
Clouds: Partly cloudy
Visibility: 10 miles, 16 km
Cloud details: Partly cloudy 2100 ft
2024/07/14 17:22 KCQX 141722Z AUTO 14004KT 10SM SCT021 28/23 A2999 RMK AO2 T02830228